createdAt,value
2024-01-11T00:00:09.404Z,168.00
2024-01-11T00:01:12.968Z,175.23
2024-01-11T00:02:16.327Z,169.17
2024-01-11T00:03:18.928Z,160.47
2024-01-11T00:04:22.126Z,154.80
2024-01-11T00:05:24.474Z,143.63
2024-01-11T00:06:26.853Z,140.35
2024-01-11T00:07:30.079Z,141.18
2024-01-11T00:08:32.266Z,140.15
2024-01-11T00:09:35.501Z,146.30
2024-01-11T00:10:37.734Z,147.43
2024-01-11T00:11:41.062Z,148.72
2024-01-11T00:12:43.269Z,151.78
2024-01-11T00:13:46.504Z,157.35
2024-01-11T00:14:48.725Z,163.48
2024-01-11T00:15:51.971Z,165.32
2024-01-11T00:16:55.628Z,156.20
2024-01-11T00:17:58.973Z,157.48
2024-01-11T00:19:01.921Z,163.12
2024-01-11T00:20:05.923Z,154.60
2024-01-11T00:21:08.112Z,159.05
2024-01-11T00:22:11.270Z,158.17
2024-01-11T00:23:13.568Z,156.72
2024-01-11T00:24:16.881Z,152.47
2024-01-11T00:25:19.287Z,151.15
2024-01-11T00:26:22.599Z,152.58
2024-01-11T00:27:24.860Z,162.13
2024-01-11T00:28:28.098Z,158.42
2024-01-11T00:29:30.330Z,146.00
2024-01-11T00:30:33.604Z,152.52
2024-01-11T00:31:36.440Z,147.00
2024-01-11T00:32:41.239Z,144.82
2024-01-11T00:33:43.768Z,149.03
2024-01-11T00:34:47.063Z,144.45
2024-01-11T00:35:49.399Z,144.28
2024-01-11T00:36:52.668Z,153.98
2024-01-11T00:37:54.890Z,148.35
2024-01-11T00:38:58.137Z,160.80
2024-01-11T00:40:00.421Z,176.47
2024-01-11T00:41:03.789Z,192.75
2024-01-11T00:42:06.390Z,181.42
2024-01-11T00:43:09.564Z,170.75
2024-01-11T00:44:11.981Z,165.83
2024-01-11T00:45:14.355Z,164.27
2024-01-11T00:46:17.502Z,159.03
2024-01-11T00:47:19.771Z,165.30
2024-01-11T00:48:24.473Z,168.07
2024-01-11T00:49:26.845Z,174.00
2024-01-11T00:50:30.040Z,185.75
2024-01-11T00:51:32.339Z,188.57
2024-01-11T00:52:35.550Z,196.13
2024-01-11T00:53:37.922Z,198.30
2024-01-11T00:54:41.223Z,177.88
2024-01-11T00:55:44.374Z,160.80
2024-01-11T00:56:47.638Z,159.00
2024-01-11T00:57:49.829Z,157.85
2024-01-11T00:58:53.455Z,144.47
2024-01-11T00:59:56.509Z,135.73
2024-01-11T01:00:59.834Z,136.78
2024-01-11T01:02:02.243Z,134.83
2024-01-11T01:03:06.144Z,123.92
2024-01-11T01:04:10.260Z,124.52
2024-01-11T01:05:13.819Z,120.87
2024-01-11T01:06:16.128Z,118.08
2024-01-11T01:07:19.465Z,109.50
2024-01-11T01:08:21.681Z,108.00
2024-01-11T01:09:24.868Z,105.90
2024-01-11T01:10:27.061Z,101.72
2024-01-11T01:11:30.286Z,105.27
2024-01-11T01:12:32.544Z,102.15
2024-01-11T01:13:35.790Z,96.02
2024-01-11T01:14:37.996Z,97.40
2024-01-11T01:15:41.265Z,97.92
2024-01-11T01:16:43.538Z,97.98
2024-01-11T01:17:46.804Z,98.73
2024-01-11T01:18:49.162Z,95.48
2024-01-11T01:19:53.735Z,95.02
2024-01-11T01:20:56.278Z,93.97
2024-01-11T01:21:59.471Z,94.32
2024-01-11T01:23:01.857Z,93.73
2024-01-11T01:24:05.440Z,94.65
2024-01-11T01:25:08.597Z,93.12
2024-01-11T01:26:11.892Z,93.72
2024-01-11T01:27:14.126Z,96.07
2024-01-11T01:28:17.349Z,94.00
2024-01-11T01:29:19.627Z,94.60
2024-01-11T01:30:23.145Z,94.33
2024-01-11T01:31:25.374Z,95.60
2024-01-11T01:32:27.689Z,96.75
2024-01-11T01:33:31.122Z,96.27
2024-01-11T01:34:33.541Z,96.77
2024-01-11T01:35:38.231Z,100.58
2024-01-11T01:36:40.607Z,99.10
2024-01-11T01:37:43.849Z,103.77
2024-01-11T01:38:46.586Z,104.38
2024-01-11T01:39:48.902Z,106.53
2024-01-11T01:40:52.149Z,107.03
2024-01-11T01:41:54.460Z,107.37
2024-01-11T01:43:01.030Z,106.83
2024-01-11T01:44:03.441Z,109.28
2024-01-11T01:45:08.152Z,102.67
2024-01-11T01:46:10.421Z,103.12
2024-01-11T01:47:13.849Z,99.93
2024-01-11T01:48:16.337Z,99.10
2024-01-11T01:49:23.589Z,95.70
2024-01-11T01:50:26.922Z,100.55
2024-01-11T01:51:32.847Z,99.60
2024-01-11T01:52:36.170Z,93.72
2024-01-11T01:53:39.568Z,99.77
2024-01-11T01:54:42.065Z,100.60
2024-01-11T01:55:45.369Z,101.65
2024-01-11T01:56:47.784Z,100.18
2024-01-11T01:57:52.600Z,96.63
2024-01-11T01:58:55.501Z,98.17
2024-01-11T01:59:58.905Z,98.60
2024-01-11T02:01:01.137Z,99.57
2024-01-11T02:02:03.687Z,101.17
2024-01-11T02:03:07.348Z,98.65
2024-01-11T02:04:09.902Z,97.92
2024-01-11T02:05:13.094Z,100.75
2024-01-11T02:06:17.083Z,100.12
2024-01-11T02:07:20.855Z,97.65
2024-01-11T02:08:25.257Z,97.53
2024-01-11T02:09:27.726Z,102.67
2024-01-11T02:10:32.203Z,101.50
2024-01-11T02:11:36.310Z,99.00
2024-01-11T02:12:38.795Z,99.67
2024-01-11T02:13:42.113Z,99.12
2024-01-11T02:14:44.577Z,99.05
2024-01-11T02:15:47.824Z,98.13
2024-01-11T02:16:49.965Z,96.18
2024-01-11T02:17:53.406Z,95.10
2024-01-11T02:18:55.906Z,95.30
2024-01-11T02:19:59.208Z,96.13
2024-01-11T02:21:03.890Z,95.30
2024-01-11T02:22:12.726Z,95.15
2024-01-11T02:23:19.286Z,93.58
2024-01-11T02:24:24.039Z,95.27
2024-01-11T02:25:26.301Z,93.07
2024-01-11T02:26:29.482Z,94.85
2024-01-11T02:27:31.754Z,95.30
2024-01-11T02:28:35.039Z,95.82
2024-01-11T02:29:37.253Z,94.00
2024-01-11T02:30:39.602Z,94.60
2024-01-11T02:31:42.824Z,95.67
2024-01-11T02:32:47.387Z,94.95
2024-01-11T02:33:51.939Z,92.55
2024-01-11T02:34:54.142Z,92.23
2024-01-11T02:35:57.779Z,95.60
2024-01-11T02:37:00.246Z,97.80
2024-01-11T02:38:04.484Z,94.02
2024-01-11T02:39:07.100Z,92.37
2024-01-11T02:40:12.777Z,93.20
2024-01-11T02:41:15.923Z,95.43
2024-01-11T02:42:19.176Z,89.92
2024-01-11T02:43:21.382Z,93.98
2024-01-11T02:44:24.511Z,92.32
2024-01-11T02:45:26.715Z,91.80
2024-01-11T02:46:29.880Z,91.58
2024-01-11T02:47:32.403Z,90.55
2024-01-11T02:48:35.784Z,90.15
2024-01-11T02:49:38.110Z,91.77
2024-01-11T02:50:41.404Z,88.92
2024-01-11T02:51:43.665Z,91.52
2024-01-11T02:52:46.944Z,92.28
2024-01-11T02:53:49.649Z,94.52
2024-01-11T02:54:52.883Z,91.50
2024-01-11T02:55:56.539Z,91.23
2024-01-11T02:57:00.162Z,94.75
2024-01-11T02:58:02.376Z,94.37
2024-01-11T02:59:04.704Z,95.77
2024-01-11T03:00:09.075Z,97.38
2024-01-11T03:01:11.329Z,99.35
2024-01-11T03:02:13.627Z,97.90
2024-01-11T03:03:16.985Z,93.98
2024-01-11T03:04:19.266Z,94.25
2024-01-11T03:05:22.505Z,95.88
2024-01-11T03:06:24.788Z,96.05
2024-01-11T03:07:27.938Z,92.22
2024-01-11T03:08:30.248Z,89.75
2024-01-11T03:09:33.494Z,89.95
2024-01-11T03:10:38.769Z,91.53
2024-01-11T03:11:43.378Z,91.47
2024-01-11T03:12:45.745Z,93.52
2024-01-11T03:13:48.907Z,90.60
2024-01-11T03:14:51.151Z,92.42
2024-01-11T03:15:54.301Z,92.32
2024-01-11T03:16:56.684Z,92.12
2024-01-11T03:18:00.127Z,92.85
2024-01-11T03:19:02.592Z,94.33
2024-01-11T03:20:07.019Z,94.02
2024-01-11T03:21:09.398Z,92.80
2024-01-11T03:22:14.193Z,95.43
2024-01-11T03:23:16.454Z,93.87
2024-01-11T03:24:18.705Z,94.28
2024-01-11T03:25:21.878Z,94.40
2024-01-11T03:26:24.362Z,95.07
2024-01-11T03:27:28.929Z,91.10
2024-01-11T03:28:31.134Z,92.95
2024-01-11T03:29:34.296Z,94.78
2024-01-11T03:30:36.818Z,94.12
2024-01-11T03:31:42.669Z,93.12
2024-01-11T03:32:45.166Z,92.42
2024-01-11T03:33:48.682Z,92.48
2024-01-11T03:34:50.925Z,92.77
2024-01-11T03:35:54.112Z,93.55
2024-01-11T03:36:56.330Z,93.63
2024-01-11T03:37:59.517Z,91.80
2024-01-11T03:39:02.263Z,93.33
2024-01-11T03:40:06.242Z,92.12
2024-01-11T03:41:11.732Z,92.08
2024-01-11T03:42:15.377Z,92.20
2024-01-11T03:43:19.908Z,90.47
2024-01-11T03:44:23.223Z,92.43
2024-01-11T03:45:25.457Z,90.42
2024-01-11T03:46:28.848Z,93.53
2024-01-11T03:47:31.522Z,91.33
2024-01-11T03:48:36.956Z,95.07
2024-01-11T03:49:39.273Z,95.13
2024-01-11T03:50:42.551Z,93.57
2024-01-11T03:51:45.448Z,97.27
2024-01-11T03:52:48.543Z,97.72
2024-01-11T03:53:50.953Z,99.20
2024-01-11T03:54:54.276Z,99.12
2024-01-11T03:55:56.575Z,99.47
2024-01-11T03:56:59.835Z,101.20
2024-01-11T03:58:02.585Z,103.10
2024-01-11T03:59:07.055Z,100.10
2024-01-11T04:00:11.748Z,103.48
2024-01-11T04:01:14.163Z,100.52
2024-01-11T04:02:17.872Z,102.08
2024-01-11T04:03:20.143Z,106.38
2024-01-11T04:04:23.532Z,106.47
2024-01-11T04:05:25.949Z,103.87
2024-01-11T04:06:29.459Z,106.17
2024-01-11T04:07:31.710Z,99.97
2024-01-11T04:08:35.076Z,103.92
2024-01-11T04:09:38.743Z,101.47
2024-01-11T04:10:42.076Z,105.32
2024-01-11T04:11:44.267Z,103.38
2024-01-11T04:12:47.446Z,105.48
2024-01-11T04:13:50.164Z,104.78
2024-01-11T04:14:53.669Z,100.02
2024-01-11T04:15:56.822Z,110.85
2024-01-11T04:16:59.113Z,118.93
2024-01-11T04:18:02.593Z,115.60
2024-01-11T04:19:05.347Z,108.95
2024-01-11T04:20:10.142Z,113.17
2024-01-11T04:21:22.455Z,114.13
2024-01-11T04:22:25.769Z,119.35
2024-01-11T04:23:28.021Z,115.28
2024-01-11T04:24:30.276Z,113.73
2024-01-11T04:25:33.436Z,117.78
2024-01-11T04:26:35.987Z,115.82
2024-01-11T04:27:39.302Z,109.22
2024-01-11T04:28:41.533Z,117.28
2024-01-11T04:29:44.812Z,116.63
2024-01-11T04:30:48.428Z,113.55
2024-01-11T04:31:51.654Z,116.67
2024-01-11T04:32:53.881Z,121.82
2024-01-11T04:33:57.351Z,127.85
2024-01-11T04:34:59.869Z,124.70
2024-01-11T04:36:02.980Z,120.40
2024-01-11T04:37:06.206Z,122.88
2024-01-11T04:38:08.584Z,116.48
2024-01-11T04:39:12.515Z,115.77
2024-01-11T04:40:14.948Z,113.67
2024-01-11T04:41:18.185Z,114.02
2024-01-11T04:42:20.553Z,119.97
2024-01-11T04:43:23.638Z,115.52
2024-01-11T04:44:28.045Z,111.67
2024-01-11T04:45:31.396Z,111.37
2024-01-11T04:46:34.953Z,113.08
2024-01-11T04:47:39.114Z,112.18
2024-01-11T04:48:41.475Z,112.47
2024-01-11T04:49:44.650Z,115.97
2024-01-11T04:50:46.948Z,115.12
2024-01-11T04:51:50.167Z,113.30
2024-01-11T04:52:52.391Z,119.57
2024-01-11T04:53:55.688Z,121.88
2024-01-11T04:54:57.842Z,127.42
2024-01-11T04:56:01.098Z,131.90
2024-01-11T04:57:04.096Z,125.70
2024-01-11T04:58:07.279Z,125.98
2024-01-11T04:59:09.524Z,166.35
2024-01-11T05:00:13.776Z,192.13
2024-01-11T05:01:17.072Z,183.28
2024-01-11T05:02:22.867Z,160.60
2024-01-11T05:03:25.246Z,181.20
2024-01-11T05:04:28.402Z,168.90
2024-01-11T05:05:30.662Z,148.95
2024-01-11T05:06:33.940Z,151.48
2024-01-11T05:07:36.129Z,172.95
2024-01-11T05:08:38.883Z,144.38
2024-01-11T05:09:42.145Z,153.52
2024-01-11T05:10:45.747Z,138.18
2024-01-11T05:11:48.967Z,130.43
2024-01-11T05:12:51.255Z,141.95
2024-01-11T05:13:53.958Z,171.82
2024-01-11T05:14:57.149Z,196.72
2024-01-11T05:15:59.442Z,148.77
2024-01-11T05:17:02.826Z,151.07
2024-01-11T05:18:06.823Z,125.72
2024-01-11T05:19:10.260Z,114.53
2024-01-11T05:20:12.802Z,114.63
2024-01-11T05:21:16.092Z,117.00
2024-01-11T05:22:18.838Z,152.67
2024-01-11T05:23:22.054Z,142.03
2024-01-11T05:24:24.320Z,151.70
2024-01-11T05:25:27.487Z,137.08
2024-01-11T05:26:29.724Z,142.17
2024-01-11T05:27:32.922Z,149.20
2024-01-11T05:28:35.170Z,152.42
2024-01-11T05:29:38.374Z,159.48
2024-01-11T05:30:40.861Z,177.17
2024-01-11T05:31:44.135Z,170.80
2024-01-11T05:32:46.451Z,131.03
2024-01-11T05:33:51.311Z,130.18
2024-01-11T05:34:53.653Z,123.22
2024-01-11T05:35:56.868Z,138.05
2024-01-11T05:37:01.074Z,158.52
2024-01-11T05:38:04.556Z,158.77
2024-01-11T05:39:07.175Z,151.75
2024-01-11T05:40:10.820Z,153.92
2024-01-11T05:41:13.186Z,184.53
2024-01-11T05:42:15.442Z,152.35
2024-01-11T05:43:18.631Z,147.32
2024-01-11T05:44:21.393Z,165.03
2024-01-11T05:45:29.327Z,172.90
2024-01-11T05:46:38.131Z,167.92
2024-01-11T05:47:41.403Z,162.90
2024-01-11T05:48:43.996Z,152.12
2024-01-11T05:49:49.202Z,154.05
2024-01-11T05:50:51.435Z,148.07
2024-01-11T05:51:54.648Z,143.35
2024-01-11T05:52:57.989Z,138.40
2024-01-11T05:54:01.273Z,148.10
2024-01-11T05:55:03.623Z,141.58
2024-01-11T05:56:10.207Z,153.62
2024-01-11T05:57:12.548Z,153.57
2024-01-11T05:58:15.814Z,154.40
2024-01-11T05:59:18.086Z,151.27
2024-01-11T06:00:21.828Z,145.38
2024-01-11T06:01:24.239Z,147.53
2024-01-11T06:02:27.420Z,142.38
2024-01-11T06:03:30.879Z,142.13
2024-01-11T06:04:34.718Z,131.95
2024-01-11T06:05:38.493Z,138.27
2024-01-11T06:06:42.040Z,139.30
2024-01-11T06:07:44.228Z,137.47
2024-01-11T06:08:47.533Z,128.97
2024-01-11T06:09:49.815Z,116.83
2024-01-11T06:10:52.015Z,122.77
2024-01-11T06:11:55.279Z,120.62
2024-01-11T06:12:57.768Z,114.88
2024-01-11T06:14:01.693Z,116.27
2024-01-11T06:15:04.429Z,110.55
2024-01-11T06:16:10.052Z,111.37
2024-01-11T06:17:13.678Z,110.93
2024-01-11T06:18:17.064Z,114.87
2024-01-11T06:19:19.426Z,115.00
2024-01-11T06:20:22.782Z,117.55
2024-01-11T06:21:26.332Z,121.18
2024-01-11T06:22:29.494Z,125.83
2024-01-11T06:23:31.797Z,122.67
2024-01-11T06:24:34.981Z,120.05
2024-01-11T06:25:37.182Z,120.90
2024-01-11T06:26:40.452Z,114.10
2024-01-11T06:27:43.744Z,113.33
2024-01-11T06:28:46.955Z,116.22
2024-01-11T06:29:49.217Z,113.62
2024-01-11T06:30:52.434Z,111.35
2024-01-11T06:31:54.744Z,111.85
2024-01-11T06:32:57.908Z,113.35
2024-01-11T06:34:00.326Z,113.82
2024-01-11T06:35:04.435Z,118.70
2024-01-11T06:36:07.584Z,117.32
2024-01-11T06:37:12.190Z,117.88
2024-01-11T06:38:14.453Z,120.15
2024-01-11T06:39:17.922Z,117.65
2024-01-11T06:40:20.787Z,117.00
2024-01-11T06:41:24.142Z,116.83
2024-01-11T06:42:26.442Z,111.07
2024-01-11T06:43:29.629Z,114.52
2024-01-11T06:44:32.322Z,111.17
2024-01-11T06:45:36.300Z,115.15
2024-01-11T06:46:40.604Z,113.12
2024-01-11T06:47:46.049Z,113.92
2024-01-11T06:48:48.558Z,114.18
2024-01-11T06:49:51.829Z,117.58
2024-01-11T06:50:54.062Z,123.42
2024-01-11T06:51:57.625Z,127.43
2024-01-11T06:53:01.528Z,126.45
2024-01-11T06:54:05.054Z,129.27
2024-01-11T06:55:08.572Z,135.68
2024-01-11T06:56:18.346Z,139.05
2024-01-11T06:57:20.743Z,141.85
2024-01-11T06:58:24.256Z,136.38
2024-01-11T06:59:27.181Z,133.78
2024-01-11T07:00:30.455Z,128.97
2024-01-11T07:01:32.660Z,129.82
2024-01-11T07:02:36.424Z,125.05
2024-01-11T07:03:38.841Z,127.50
2024-01-11T07:04:46.870Z,130.02
2024-01-11T07:05:49.374Z,128.38
2024-01-11T07:06:52.727Z,129.07
2024-01-11T07:07:54.970Z,130.43
2024-01-11T07:08:59.556Z,134.52
2024-01-11T07:10:01.788Z,138.38
2024-01-11T07:11:05.408Z,143.55
2024-01-11T07:12:08.088Z,137.85
2024-01-11T07:13:12.401Z,137.23
2024-01-11T07:14:14.670Z,136.60
2024-01-11T07:15:18.363Z,132.22
2024-01-11T07:16:21.630Z,128.60
2024-01-11T07:17:25.021Z,122.35
2024-01-11T07:18:27.650Z,121.60
2024-01-11T07:19:30.992Z,114.47
2024-01-11T07:20:33.369Z,116.60
2024-01-11T07:21:37.019Z,115.62
2024-01-11T07:22:42.035Z,119.57
2024-01-11T07:23:45.897Z,127.10
2024-01-11T07:24:49.515Z,133.00
2024-01-11T07:25:52.800Z,138.83
2024-01-11T07:26:55.142Z,145.05
2024-01-11T07:27:57.638Z,142.82
2024-01-11T07:29:01.064Z,138.32
2024-01-11T07:30:03.842Z,139.03
2024-01-11T07:31:07.334Z,128.97
2024-01-11T07:32:09.757Z,127.28
2024-01-11T07:33:12.281Z,130.60
2024-01-11T07:34:15.723Z,134.45
2024-01-11T07:35:19.408Z,136.38
2024-01-11T07:36:22.840Z,141.10
2024-01-11T07:37:26.862Z,144.87
2024-01-11T07:38:29.157Z,143.48
2024-01-11T07:39:32.854Z,138.55
2024-01-11T07:40:37.404Z,140.00
2024-01-11T07:41:43.964Z,141.62
2024-01-11T07:42:47.134Z,143.90
2024-01-11T07:43:54.414Z,130.92
2024-01-11T07:44:57.383Z,124.20
2024-01-11T07:45:59.759Z,124.48
2024-01-11T07:47:03.054Z,128.52
2024-01-11T07:48:06.452Z,120.62
2024-01-11T07:49:09.011Z,116.42
2024-01-11T07:50:13.517Z,110.17
2024-01-11T07:51:15.928Z,112.90
2024-01-11T07:52:21.276Z,109.78
2024-01-11T07:53:24.613Z,104.57
2024-01-11T07:54:27.837Z,106.73
2024-01-11T07:55:29.997Z,102.35
2024-01-11T07:56:34.707Z,103.33
2024-01-11T07:57:37.522Z,104.72
2024-01-11T07:58:40.790Z,104.53
2024-01-11T07:59:43.194Z,99.33
2024-01-11T08:00:46.604Z,100.48
2024-01-11T08:01:49.510Z,98.83
2024-01-11T08:02:52.965Z,102.92
2024-01-11T08:03:55.348Z,102.47
2024-01-11T08:04:57.796Z,102.22
2024-01-11T08:06:01.708Z,104.73
2024-01-11T08:07:04.415Z,103.18
2024-01-11T08:08:12.815Z,102.60
2024-01-11T08:09:15.280Z,98.97
2024-01-11T08:10:18.533Z,95.33
2024-01-11T08:11:21.224Z,96.15
2024-01-11T08:12:26.090Z,96.10
2024-01-11T08:13:28.233Z,99.08
2024-01-11T08:14:31.437Z,102.15
2024-01-11T08:15:33.629Z,98.57
2024-01-11T08:16:37.103Z,101.18
2024-01-11T08:17:40.242Z,101.03
2024-01-11T08:18:44.983Z,102.92
2024-01-11T08:19:47.213Z,103.02
2024-01-11T08:20:50.555Z,98.42
2024-01-11T08:21:54.693Z,98.72
2024-01-11T08:22:58.062Z,98.48
2024-01-11T08:24:02.800Z,102.80
2024-01-11T08:25:07.689Z,93.60
2024-01-11T08:26:09.990Z,91.22
2024-01-11T08:27:13.125Z,91.12
2024-01-11T08:28:16.654Z,92.52
2024-01-11T08:29:20.941Z,93.30
2024-01-11T08:30:23.709Z,91.53
2024-01-11T08:31:27.034Z,91.98
2024-01-11T08:32:32.238Z,90.20
2024-01-11T08:33:37.934Z,92.35
2024-01-11T08:34:40.527Z,88.67
2024-01-11T08:35:43.768Z,86.92
2024-01-11T08:36:46.390Z,91.13
2024-01-11T08:37:50.524Z,95.38
2024-01-11T08:38:52.743Z,97.12
2024-01-11T08:39:54.927Z,99.50
2024-01-11T08:40:59.760Z,98.83
2024-01-11T08:42:02.043Z,103.38
2024-01-11T08:43:07.957Z,98.55
2024-01-11T08:44:11.534Z,93.47
2024-01-11T08:45:19.331Z,98.28
2024-01-11T08:46:25.944Z,99.77
2024-01-11T08:47:29.277Z,104.15
2024-01-11T08:48:31.843Z,107.60
2024-01-11T08:49:35.048Z,99.38
2024-01-11T08:50:37.295Z,89.43
2024-01-11T08:51:40.659Z,81.92
2024-01-11T08:52:43.696Z,80.92
2024-01-11T08:53:46.871Z,79.73
2024-01-11T08:54:50.422Z,84.17
2024-01-11T08:55:54.439Z,85.20
2024-01-11T08:56:56.683Z,85.55
2024-01-11T08:57:59.797Z,82.58
2024-01-11T08:59:02.078Z,82.13
2024-01-11T09:00:08.465Z,79.98
2024-01-11T09:01:11.472Z,84.52
2024-01-11T09:02:18.447Z,82.77
2024-01-11T09:03:22.636Z,81.32
2024-01-11T09:04:25.926Z,78.57
2024-01-11T09:05:28.313Z,75.20
2024-01-11T09:06:31.937Z,73.75
2024-01-11T09:07:34.188Z,68.85
2024-01-11T09:08:37.449Z,73.02
2024-01-11T09:09:44.909Z,70.00
2024-01-11T09:10:54.699Z,69.87
2024-01-11T09:11:57.008Z,68.72
2024-01-11T09:13:00.408Z,64.77
2024-01-11T09:14:04.091Z,65.77
2024-01-11T09:15:09.345Z,67.65
2024-01-11T09:16:14.957Z,68.00
2024-01-11T09:17:18.170Z,73.50
2024-01-11T09:18:20.433Z,71.68
2024-01-11T09:19:23.747Z,74.92
2024-01-11T09:20:25.987Z,70.23
2024-01-11T09:21:29.325Z,67.12
2024-01-11T09:22:32.500Z,67.05
2024-01-11T09:23:35.641Z,65.10
2024-01-11T09:24:40.220Z,69.35
2024-01-11T09:25:42.739Z,70.03
2024-01-11T09:26:45.044Z,71.60
2024-01-11T09:27:48.335Z,73.03
2024-01-11T09:28:50.625Z,68.85
2024-01-11T09:29:55.775Z,65.77
2024-01-11T09:31:03.117Z,63.82
2024-01-11T09:32:06.792Z,63.02
2024-01-11T09:33:10.195Z,67.30
2024-01-11T09:34:12.634Z,67.50
2024-01-11T09:35:16.858Z,64.72
2024-01-11T09:36:19.408Z,63.20
2024-01-11T09:37:21.830Z,64.10
2024-01-11T09:38:25.138Z,65.17
2024-01-11T09:39:27.792Z,63.13
2024-01-11T09:40:31.090Z,62.47
2024-01-11T09:41:33.373Z,62.85
2024-01-11T09:42:36.568Z,64.52
2024-01-11T09:43:39.195Z,66.43
2024-01-11T09:44:42.471Z,66.50
2024-01-11T09:45:46.813Z,61.85
2024-01-11T09:46:50.433Z,60.83
2024-01-11T09:47:54.345Z,62.10
2024-01-11T09:48:57.058Z,64.23
2024-01-11T09:50:01.502Z,62.90
2024-01-11T09:51:04.567Z,60.70
2024-01-11T09:52:09.674Z,59.87
2024-01-11T09:53:12.135Z,59.32
2024-01-11T09:54:17.296Z,57.10
2024-01-11T09:55:19.882Z,60.43
2024-01-11T09:56:24.586Z,61.75
2024-01-11T09:57:30.594Z,62.32
2024-01-11T09:58:37.159Z,64.45
2024-01-11T09:59:39.522Z,61.32
2024-01-11T10:00:43.320Z,61.07
2024-01-11T10:01:45.777Z,62.00
2024-01-11T10:02:50.928Z,61.97
2024-01-11T10:03:54.292Z,59.38
2024-01-11T10:04:57.948Z,61.75
2024-01-11T10:06:03.242Z,59.88
2024-01-11T10:07:07.205Z,59.45
2024-01-11T10:08:10.170Z,57.42
2024-01-11T10:09:14.082Z,57.40
2024-01-11T10:10:16.804Z,55.82
2024-01-11T10:11:20.201Z,53.87
2024-01-11T10:12:25.867Z,56.10
2024-01-11T10:13:31.041Z,58.02
2024-01-11T10:14:34.137Z,58.00
2024-01-11T10:15:37.492Z,55.60
2024-01-11T10:16:39.876Z,57.75
2024-01-11T10:17:45.562Z,54.93
2024-01-11T10:18:49.583Z,54.80
2024-01-11T10:19:53.147Z,54.58
2024-01-11T10:20:55.794Z,56.22
2024-01-11T10:21:59.950Z,55.40
2024-01-11T10:23:03.834Z,52.45
2024-01-11T10:24:07.491Z,52.80
2024-01-11T10:25:12.429Z,55.13
2024-01-11T10:26:18.329Z,52.72
2024-01-11T10:27:20.684Z,46.13
2024-01-11T10:28:23.994Z,45.83
2024-01-11T10:29:30.520Z,46.92
2024-01-11T10:30:35.087Z,49.40
2024-01-11T10:31:37.426Z,47.82
2024-01-11T10:32:40.755Z,48.92
2024-01-11T10:33:43.307Z,46.40
2024-01-11T10:34:49.437Z,43.42
2024-01-11T10:35:51.870Z,40.88
2024-01-11T10:36:55.211Z,42.65
2024-01-11T10:38:00.141Z,43.05
2024-01-11T10:39:06.016Z,42.30
2024-01-11T10:40:13.371Z,41.63
2024-01-11T10:41:20.702Z,40.78
2024-01-11T10:42:26.918Z,41.70
2024-01-11T10:43:32.741Z,42.77
2024-01-11T10:44:37.608Z,45.63
2024-01-11T10:45:40.260Z,46.43
2024-01-11T10:46:44.900Z,45.48
2024-01-11T10:47:53.187Z,42.82
2024-01-11T10:48:58.974Z,43.05
2024-01-11T10:50:03.818Z,42.95
2024-01-11T10:51:11.472Z,42.45
2024-01-11T10:52:14.241Z,45.27
2024-01-11T10:53:30.744Z,43.12
2024-01-11T10:54:35.808Z,41.07
2024-01-11T10:55:39.784Z,36.72
2024-01-11T10:56:44.988Z,33.93
2024-01-11T10:57:50.514Z,34.00
2024-01-11T10:58:54.522Z,34.07
2024-01-11T10:59:58.267Z,35.02
2024-01-11T11:01:02.001Z,36.55
2024-01-11T11:02:07.850Z,41.27
2024-01-11T11:03:12.994Z,38.22
2024-01-11T11:04:17.798Z,42.32
2024-01-11T11:05:23.897Z,43.10
2024-01-11T11:06:30.317Z,39.87
2024-01-11T11:07:33.660Z,39.97
2024-01-11T11:08:38.341Z,37.30
2024-01-11T11:09:45.920Z,38.13
2024-01-11T11:10:50.673Z,38.65
2024-01-11T11:11:55.433Z,38.95
2024-01-11T11:13:01.114Z,34.05
2024-01-11T11:14:04.902Z,36.90
2024-01-11T11:15:08.901Z,34.37
2024-01-11T11:16:12.246Z,35.45
2024-01-11T11:17:16.201Z,36.83
2024-01-11T11:18:20.506Z,35.28
2024-01-11T11:19:23.140Z,31.85
2024-01-11T11:20:29.357Z,31.92
2024-01-11T11:21:32.117Z,36.87
2024-01-11T11:22:37.197Z,38.08
2024-01-11T11:23:39.987Z,32.77
2024-01-11T11:24:43.522Z,29.37
2024-01-11T11:25:50.170Z,31.15
2024-01-11T11:26:53.701Z,32.73
2024-01-11T11:27:57.728Z,33.48
2024-01-11T11:29:02.253Z,36.02
2024-01-11T11:30:06.785Z,42.98
2024-01-11T11:31:10.382Z,48.85
2024-01-11T11:32:12.969Z,59.10
2024-01-11T11:33:19.764Z,56.15
2024-01-11T11:34:22.242Z,41.33
2024-01-11T11:35:27.404Z,45.25
2024-01-11T11:36:30.161Z,45.18
2024-01-11T11:37:34.043Z,39.75
2024-01-11T11:38:37.921Z,33.77
2024-01-11T11:39:41.382Z,32.72
2024-01-11T11:40:46.192Z,31.82
2024-01-11T11:41:50.920Z,32.45
2024-01-11T11:42:53.275Z,33.23
2024-01-11T11:43:56.449Z,32.93
2024-01-11T11:44:59.409Z,32.18
2024-01-11T11:46:08.786Z,31.27
2024-01-11T11:47:21.714Z,29.93
2024-01-11T11:48:49.954Z,29.75
2024-01-11T11:50:11.860Z,30.62
2024-01-11T11:51:19.870Z,29.15
2024-01-11T11:52:24.024Z,29.25
2024-01-11T11:53:26.367Z,30.63
2024-01-11T11:54:30.358Z,31.27
2024-01-11T11:55:33.670Z,30.78
2024-01-11T11:56:37.080Z,33.42
2024-01-11T11:57:39.331Z,32.42
2024-01-11T12:00:25.499Z,32.47
2024-01-11T12:01:38.903Z,30.30
2024-01-11T12:02:41.966Z,33.23
2024-01-11T12:03:51.312Z,34.80
2024-01-11T12:04:53.841Z,31.65
2024-01-11T12:05:57.983Z,31.48
2024-01-11T12:07:00.438Z,31.72
2024-01-11T12:08:03.961Z,29.37
2024-01-11T12:10:26.405Z,30.27
2024-01-11T12:11:29.852Z,30.35
2024-01-11T12:12:32.237Z,30.28
2024-01-11T12:13:34.983Z,36.30
2024-01-11T12:14:38.570Z,45.02
2024-01-11T12:15:41.451Z,34.37
2024-01-11T12:16:45.089Z,30.07
2024-01-11T12:17:47.444Z,33.42
2024-01-11T12:19:59.586Z,36.02
2024-01-11T12:21:02.997Z,34.73
2024-01-11T12:22:05.554Z,34.37
2024-01-11T12:23:09.021Z,32.95
2024-01-11T12:24:11.608Z,31.50
2024-01-11T12:25:14.946Z,30.18
2024-01-11T12:26:23.670Z,32.95
2024-01-11T12:27:28.200Z,38.72
2024-01-11T12:28:30.653Z,43.05
2024-01-11T12:29:39.964Z,40.03
2024-01-11T12:30:48.048Z,39.15
2024-01-11T12:31:51.511Z,39.00
2024-01-11T12:32:56.451Z,40.83
2024-01-11T12:33:59.208Z,38.28
2024-01-11T12:35:03.894Z,39.00
2024-01-11T12:36:08.980Z,38.28
2024-01-11T12:37:12.266Z,35.90
2024-01-11T12:38:14.644Z,33.60
2024-01-11T12:39:19.065Z,30.90
2024-01-11T12:40:21.333Z,33.20
2024-01-11T12:41:25.565Z,33.90
2024-01-11T12:42:28.740Z,32.32
2024-01-11T12:43:31.026Z,31.67
2024-01-11T12:44:36.583Z,32.65
2024-01-11T12:45:39.317Z,32.80
2024-01-11T12:46:42.641Z,32.02
2024-01-11T12:47:45.440Z,34.48
2024-01-11T12:48:49.909Z,37.85
2024-01-11T12:49:53.349Z,52.22
2024-01-11T12:51:10.176Z,34.20
2024-01-11T12:52:17.993Z,35.85
2024-01-11T12:53:21.448Z,36.77
2024-01-11T12:54:24.346Z,49.82
2024-01-11T12:55:27.644Z,50.15
2024-01-11T12:56:30.444Z,36.95
2024-01-11T12:57:34.607Z,37.77
2024-01-11T12:58:37.409Z,38.25
2024-01-11T12:59:41.057Z,39.20
2024-01-11T13:00:43.636Z,37.03
2024-01-11T13:01:47.037Z,37.18
2024-01-11T13:02:49.733Z,39.02
2024-01-11T13:03:53.538Z,41.42
2024-01-11T13:04:56.895Z,43.33
2024-01-11T13:06:02.519Z,40.38
2024-01-11T13:07:05.402Z,35.70
2024-01-11T13:08:10.370Z,34.28
2024-01-11T13:09:15.358Z,35.55
2024-01-11T13:10:18.897Z,34.15
2024-01-11T13:11:22.437Z,35.20
2024-01-11T13:12:25.846Z,34.38
2024-01-11T13:13:29.439Z,34.43
2024-01-11T13:14:33.041Z,33.97
2024-01-11T13:15:37.399Z,35.02
2024-01-11T13:16:41.004Z,33.58
2024-01-11T13:17:43.593Z,34.25
2024-01-11T13:18:46.987Z,36.82
2024-01-11T13:19:49.550Z,38.80
2024-01-11T13:20:53.060Z,40.95
2024-01-11T13:21:58.072Z,41.07
2024-01-11T13:23:16.042Z,37.07
2024-01-11T13:24:18.543Z,36.07
2024-01-11T13:25:22.180Z,36.85
2024-01-11T13:26:24.582Z,38.45
2024-01-11T13:27:27.904Z,36.82
2024-01-11T13:28:30.243Z,36.07
2024-01-11T13:29:33.410Z,39.08
2024-01-11T13:30:36.389Z,41.90
2024-01-11T13:31:39.856Z,42.58